TimeEST,TemperatureF,Dew PointF,Humidity,Sea Level PressureIn,VisibilityMPH,Wind Direction,Wind SpeedMPH,Gust SpeedMPH,PrecipitationIn,Events,Conditions,WindDirDegrees,DateUTC
12:15 AM,46.4,46.4,100,29.36,0.2,Calm,Calm,-,N/A,,Overcast,0,2013-01-31 05:15:00
12:35 AM,48.2,46.4,93,29.33,0.5,South,8.1,-,0.01,,Overcast,180,2013-01-31 05:35:00
12:55 AM,53.6,51.8,94,29.31,9.0,South,11.5,16.1,0.01,,Overcast,190,2013-01-31 05:55:00
1:15 AM,53.6,53.6,100,29.28,9.0,South,13.8,20.7,0.04,,Overcast,190,2013-01-31 06:15:00
1:35 AM,55.4,53.6,94,29.26,6.0,South,13.8,20.7,0.04,,Overcast,190,2013-01-31 06:35:00
1:55 AM,55.4,53.6,94,29.24,7.0,SSW,18.4,28.8,0.06,,Overcast,200,2013-01-31 06:55:00
2:16 AM,55.4,53.6,94,29.22,9.0,South,13.8,23.0,0.05,,Overcast,190,2013-01-31 07:16:00
2:35 AM,55.4,53.6,94,29.18,10.0,South,18.4,-,0.10,,Overcast,180,2013-01-31 07:35:00
2:55 AM,57.2,53.6,88,29.15,10.0,South,18.4,34.5,0.11,,Overcast,190,2013-01-31 07:55:00
3:15 AM,57.2,53.6,88,29.14,10.0,South,17.3,26.5,0.02,,Overcast,190,2013-01-31 08:15:00
3:35 AM,57.2,53.6,88,29.11,7.0,South,15.0,26.5,0.04,,Overcast,190,2013-01-31 08:35:00
3:55 AM,57.2,55.4,94,29.06,8.0,South,19.6,26.5,0.05,,Overcast,180,2013-01-31 08:55:00
4:15 AM,57.2,55.4,94,29.03,10.0,South,18.4,28.8,0.02,,Overcast,180,2013-01-31 09:15:00
4:35 AM,57.2,55.4,94,29.00,8.0,South,23.0,36.8,0.05,,Overcast,190,2013-01-31 09:35:00
4:55 AM,57.2,55.4,94,28.98,8.0,South,20.7,33.4,0.11,,Overcast,190,2013-01-31 09:55:00
5:15 AM,57.2,55.4,94,28.96,7.0,South,20.7,31.1,0.11,,Overcast,190,2013-01-31 10:15:00
5:35 AM,57.2,55.4,94,28.97,9.0,SSW,18.4,31.1,0.20,,Overcast,210,2013-01-31 10:35:00
5:55 AM,57.2,53.6,88,28.99,10.0,SSW,21.9,29.9,0.27,,Overcast,200,2013-01-31 10:55:00
6:15 AM,57.2,51.8,82,28.99,10.0,South,13.8,26.5,0.02,,Mostly Cloudy,190,2013-01-31 11:15:00
6:35 AM,55.4,53.6,94,28.98,10.0,South,13.8,-,0.05,,Overcast,180,2013-01-31 11:35:00
6:55 AM,55.4,51.8,88,28.93,10.0,South,13.8,18.4,0.05,,Mostly Cloudy,170,2013-01-31 11:55:00
7:15 AM,53.6,51.8,94,28.92,10.0,South,10.4,-,0.01,,Overcast,180,2013-01-31 12:15:00
7:35 AM,55.4,51.8,88,28.93,10.0,South,16.1,19.6,0.01,,Mostly Cloudy,190,2013-01-31 12:35:00
7:55 AM,55.4,51.8,88,28.92,10.0,SSW,18.4,28.8,0.01,,Mostly Cloudy,200,2013-01-31 12:55:00
8:15 AM,44.6,39.2,81,29.01,10.0,WSW,12.7,27.6,0.10,,Overcast,250,2013-01-31 13:15:00
8:35 AM,42.8,35.6,76,29.05,10.0,SW,9.2,20.7,0.11,,Overcast,230,2013-01-31 13:35:00
8:55 AM,42.8,33.8,70,29.06,10.0,West,4.6,25.3,0.11,,Overcast,280,2013-01-31 13:55:00
9:16 AM,42.8,33.8,70,29.09,10.0,West,3.5,-,0.01,,Overcast,260,2013-01-31 14:16:00
9:35 AM,41.0,32.0,70,29.11,10.0,West,11.5,16.1,0.01,,Overcast,280,2013-01-31 14:35:00
9:55 AM,41.0,32.0,70,29.11,10.0,West,5.8,-,0.01,,Overcast,270,2013-01-31 14:55:00
10:16 AM,42.8,30.2,61,29.12,10.0,WNW,15.0,24.2,N/A,,Mostly Cloudy,290,2013-01-31 15:16:00
10:35 AM,41.0,26.6,57,29.16,10.0,WNW,18.4,33.4,N/A,,Overcast,290,2013-01-31 15:35:00
10:55 AM,41.0,26.6,57,29.17,10.0,West,11.5,24.2,N/A,,Overcast,270,2013-01-31 15:55:00
11:15 AM,41.0,24.8,53,29.19,10.0,West,28.8,41.4,N/A,,Overcast,260,2013-01-31 16:15:00
11:35 AM,39.2,23.0,52,29.20,10.0,WSW,16.1,36.8,N/A,,Overcast,250,2013-01-31 16:35:00
11:55 AM,39.2,21.2,49,29.21,10.0,West,19.6,35.7,N/A,,Mostly Cloudy,260,2013-01-31 16:55:00
12:15 PM,39.2,21.2,49,29.21,10.0,West,13.8,25.3,N/A,,Mostly Cloudy,280,2013-01-31 17:15:00
12:35 PM,39.2,19.4,45,29.23,10.0,WSW,20.7,32.2,N/A,,Overcast,240,2013-01-31 17:35:00
12:55 PM,39.2,19.4,45,29.25,10.0,WNW,23.0,33.4,N/A,,Mostly Cloudy,290,2013-01-31 17:55:00
1:16 PM,39.2,17.6,42,29.26,10.0,West,18.4,31.1,N/A,,Mostly Cloudy,270,2013-01-31 18:16:00
1:35 PM,37.4,17.6,45,29.27,10.0,West,19.6,34.5,N/A,,Overcast,260,2013-01-31 18:35:00
1:55 PM,37.4,15.8,41,29.28,10.0,WNW,20.7,32.2,N/A,,Overcast,290,2013-01-31 18:55:00
2:15 PM,37.4,15.8,41,29.30,10.0,West,15.0,34.5,N/A,,Mostly Cloudy,260,2013-01-31 19:15:00
2:35 PM,37.4,15.8,41,29.31,10.0,West,17.3,33.4,N/A,,Mostly Cloudy,270,2013-01-31 19:35:00
2:55 PM,35.6,15.8,44,29.33,10.0,West,15.0,28.8,N/A,,Overcast,260,2013-01-31 19:55:00
3:35 PM,35.6,15.8,44,29.35,10.0,WSW,15.0,21.9,N/A,,Overcast,250,2013-01-31 20:35:00
4:15 PM,35.6,15.8,44,29.38,10.0,West,13.8,35.7,N/A,,Overcast,260,2013-01-31 21:15:00
4:35 PM,35.6,15.8,44,29.38,10.0,West,11.5,23.0,N/A,,Overcast,260,2013-01-31 21:35:00
4:55 PM,35.6,15.8,44,29.39,10.0,WNW,17.3,23.0,N/A,,Overcast,300,2013-01-31 21:55:00
5:15 PM,33.8,12.2,41,29.41,10.0,West,15.0,26.5,N/A,,Overcast,260,2013-01-31 22:15:00
5:35 PM,33.8,12.2,41,29.42,10.0,West,10.4,17.3,N/A,,Overcast,260,2013-01-31 22:35:00
5:55 PM,33.8,14.0,44,29.44,10.0,WNW,6.9,18.4,N/A,,Mostly Cloudy,290,2013-01-31 22:55:00
6:35 PM,32.0,14.0,48,29.46,10.0,West,12.7,27.6,N/A,,Partly Cloudy,260,2013-01-31 23:35:00
7:15 PM,30.2,12.2,47,29.50,10.0,West,15.0,35.7,N/A,,Partly Cloudy,260,2013-02-01 00:15:00
7:35 PM,30.2,12.2,47,29.50,10.0,West,16.1,25.3,N/A,,Clear,270,2013-02-01 00:35:00
8:15 PM,30.2,12.2,47,29.52,10.0,WSW,11.5,27.6,N/A,,Mostly Cloudy,250,2013-02-01 01:15:00
8:35 PM,28.4,12.2,51,29.53,10.0,WSW,13.8,21.9,N/A,,Partly Cloudy,250,2013-02-01 01:35:00
8:55 PM,28.4,12.2,51,29.54,10.0,WSW,12.7,19.6,N/A,,Partly Cloudy,250,2013-02-01 01:55:00
9:15 PM,28.4,10.4,47,29.54,10.0,WSW,11.5,32.2,N/A,,Clear,240,2013-02-01 02:15:00
9:35 PM,28.4,10.4,47,29.54,10.0,WSW,8.1,23.0,N/A,,Clear,250,2013-02-01 02:35:00
10:15 PM,28.4,8.6,43,29.55,10.0,WSW,8.1,27.6,N/A,,Clear,250,2013-02-01 03:15:00
10:35 PM,28.4,10.4,47,29.55,10.0,WSW,9.2,20.7,N/A,,Clear,250,2013-02-01 03:35:00
11:15 PM,28.4,10.4,47,29.57,10.0,WSW,6.9,18.4,N/A,,Mostly Cloudy,240,2013-02-01 04:15:00
11:35 PM,28.4,10.4,47,29.57,10.0,West,16.1,24.2,N/A,,Mostly Cloudy,260,2013-02-01 04:35:00
11:55 PM,28.4,8.6,43,29.57,10.0,WSW,15.0,24.2,N/A,,Partly Cloudy,240,2013-02-01 04:55:00